Hovedside
METAR-TAF:

METAR-TAF

Lufthavner :

Berlevåg, Norge

Berlevåg lufthavn

breddegrad: 70-52N, lengdegrad: 029-02E, høyde over havet: 1 m

Gjeldene værobservasjon

Denne rapporten ble laget for 7 timer og 46 minutter siden, klokken 20:50 UTC
Vind 8 kt fra Sørvest
Temperatur -5°C
Luftfuktighet 68%
Trykk 1011 hPa
Sikt 10 km eller mer
ingen skyer under 1500 m og ingen bygeskyer

METAR: ENBV 242050Z 23008KT CAVOK M05/M10 Q1011

Tid: 06:36 (04:36 UTC)

Varsel

Denne rapporten ble laget for 20 timer og 36 minutter siden, klokken 08:00 UTC
Varsel gyldig fra 24. klokken 09 UTC til 24. klokken 12 UTC
Vind 9 kt fra Sør-sørvest
Sikt 10 km eller mer
Få skyer i en høyde av 2000 ft

TAF: ENBV 240800Z 2409/2412 21009KT 9999 FEW020

Værobservasjoner og værvarsel for over 4000 flyplasser (METAR- og TAF-rapporter).

Tilgjengelige stasjoner er representert av de røde og gule prikkene på kartet.

Hold musepekeren over prikken for å se navnet på stasjonen.

Klikk så for å se værobservasjoner og -varsler.

For å forandre kartet kan du klikke på den grønne knappen med svart kryss for å zoome inn, på den grønne knappen med strek for å zoome ut, eller på de grønne pilene for å se tilstøtende kart.


METAR-TAF: